sensor_id;sensor_type;location;lat;lon;timestamp;P1;durP1;ratioP1;P2;durP2;ratioP2
29574;SDS011;16507;51.046;6.406;2022-07-29T00:02:11;5.03;;;0.88;;
29574;SDS011;16507;51.046;6.406;2022-07-29T00:04:37;4.63;;;1.13;;
29574;SDS011;16507;51.046;6.406;2022-07-29T00:07:03;1.83;;;0.80;;
29574;SDS011;16507;51.046;6.406;2022-07-29T00:09:29;6.25;;;1.23;;
29574;SDS011;16507;51.046;6.406;2022-07-29T00:11:56;3.63;;;0.80;;
29574;SDS011;16507;51.046;6.406;2022-07-29T00:14:24;1.90;;;0.70;;
29574;SDS011;16507;51.046;6.406;2022-07-29T00:16:51;4.28;;;0.70;;
29574;SDS011;16507;51.046;6.406;2022-07-29T00:19:17;5.70;;;0.90;;
29574;SDS011;16507;51.046;6.406;2022-07-29T00:21:42;4.15;;;0.82;;
29574;SDS011;16507;51.046;6.406;2022-07-29T00:24:08;5.13;;;0.90;;
29574;SDS011;16507;51.046;6.406;2022-07-29T00:26:34;7.78;;;1.58;;
29574;SDS011;16507;51.046;6.406;2022-07-29T00:29:00;6.32;;;1.13;;
29574;SDS011;16507;51.046;6.406;2022-07-29T00:31:26;5.50;;;0.90;;
29574;SDS011;16507;51.046;6.406;2022-07-29T00:33:52;2.13;;;0.70;;
29574;SDS011;16507;51.046;6.406;2022-07-29T00:36:18;5.47;;;0.90;;
29574;SDS011;16507;51.046;6.406;2022-07-29T00:38:45;9.63;;;1.50;;
29574;SDS011;16507;51.046;6.406;2022-07-29T00:41:14;4.13;;;1.23;;
29574;SDS011;16507;51.046;6.406;2022-07-29T00:43:41;3.08;;;0.80;;
29574;SDS011;16507;51.046;6.406;2022-07-29T00:46:07;3.42;;;1.52;;
29574;SDS011;16507;51.046;6.406;2022-07-29T00:48:33;2.58;;;1.00;;
29574;SDS011;16507;51.046;6.406;2022-07-29T00:50:59;3.38;;;0.88;;
29574;SDS011;16507;51.046;6.406;2022-07-29T00:53:26;1.80;;;0.90;;
29574;SDS011;16507;51.046;6.406;2022-07-29T00:55:53;5.95;;;0.90;;
29574;SDS011;16507;51.046;6.406;2022-07-29T00:58:20;4.70;;;1.02;;
29574;SDS011;16507;51.046;6.406;2022-07-29T01:00:46;7.45;;;0.98;;
29574;SDS011;16507;51.046;6.406;2022-07-29T01:03:12;8.82;;;2.08;;
29574;SDS011;16507;51.046;6.406;2022-07-29T01:05:38;7.10;;;1.42;;
29574;SDS011;16507;51.046;6.406;2022-07-29T01:08:06;8.45;;;1.00;;
29574;SDS011;16507;51.046;6.406;2022-07-29T01:10:31;1.80;;;0.90;;
29574;SDS011;16507;51.046;6.406;2022-07-29T01:12:58;3.78;;;1.10;;
29574;SDS011;16507;51.046;6.406;2022-07-29T01:15:26;4.15;;;1.00;;
29574;SDS011;16507;51.046;6.406;2022-07-29T01:20:26;4.32;;;0.95;;
29574;SDS011;16507;51.046;6.406;2022-07-29T01:30:59;5.55;;;1.15;;
29574;SDS011;16507;51.046;6.406;2022-07-29T01:33:27;7.05;;;1.00;;
29574;SDS011;16507;51.046;6.406;2022-07-29T01:36:14;2.20;;;0.85;;
29574;SDS011;16507;51.046;6.406;2022-07-29T01:38:59;4.27;;;0.90;;
29574;SDS011;16507;51.046;6.406;2022-07-29T01:41:37;1.65;;;0.85;;
29574;SDS011;16507;51.046;6.406;2022-07-29T01:44:17;10.63;;;1.55;;
29574;SDS011;16507;51.046;6.406;2022-07-29T01:46:49;5.47;;;0.75;;
29574;SDS011;16507;51.046;6.406;2022-07-29T01:49:24;2.33;;;0.70;;
29574;SDS011;16507;51.046;6.406;2022-07-29T01:51:54;4.55;;;0.98;;
29574;SDS011;16507;51.046;6.406;2022-07-29T01:54:26;7.15;;;1.10;;
29574;SDS011;16507;51.046;6.406;2022-07-29T01:57:00;3.33;;;0.90;;
29574;SDS011;16507;51.046;6.406;2022-07-29T01:59:28;1.67;;;1.15;;
29574;SDS011;16507;51.046;6.406;2022-07-29T02:01:56;2.33;;;1.08;;
29574;SDS011;16507;51.046;6.406;2022-07-29T02:04:23;3.80;;;1.10;;
29574;SDS011;16507;51.046;6.406;2022-07-29T02:06:51;4.72;;;1.20;;
29574;SDS011;16507;51.046;6.406;2022-07-29T02:09:19;3.65;;;1.42;;
29574;SDS011;16507;51.046;6.406;2022-07-29T02:11:51;2.45;;;1.50;;
29574;SDS011;16507;51.046;6.406;2022-07-29T02:14:19;5.32;;;1.13;;
29574;SDS011;16507;51.046;6.406;2022-07-29T02:16:47;2.45;;;1.10;;
29574;SDS011;16507;51.046;6.406;2022-07-29T02:19:15;1.50;;;0.70;;
29574;SDS011;16507;51.046;6.406;2022-07-29T02:21:43;2.55;;;0.80;;
29574;SDS011;16507;51.046;6.406;2022-07-29T02:24:10;4.28;;;1.05;;
29574;SDS011;16507;51.046;6.406;2022-07-29T02:26:37;7.28;;;1.35;;
29574;SDS011;16507;51.046;6.406;2022-07-29T02:29:06;4.53;;;0.80;;
29574;SDS011;16507;51.046;6.406;2022-07-29T02:31:34;3.90;;;1.20;;
29574;SDS011;16507;51.046;6.406;2022-07-29T02:34:05;2.58;;;1.10;;
29574;SDS011;16507;51.046;6.406;2022-07-29T02:36:33;1.77;;;0.90;;
29574;SDS011;16507;51.046;6.406;2022-07-29T02:38:59;1.17;;;0.70;;
29574;SDS011;16507;51.046;6.406;2022-07-29T02:44:06;2.47;;;0.90;;
29574;SDS011;16507;51.046;6.406;2022-07-29T02:46:37;1.48;;;0.73;;
29574;SDS011;16507;51.046;6.406;2022-07-29T02:51:51;3.72;;;1.30;;
29574;SDS011;16507;51.046;6.406;2022-07-29T02:54:31;5.05;;;1.17;;
29574;SDS011;16507;51.046;6.406;2022-07-29T03:00:05;7.50;;;0.95;;
29574;SDS011;16507;51.046;6.406;2022-07-29T03:02:34;8.00;;;1.98;;
29574;SDS011;16507;51.046;6.406;2022-07-29T03:05:03;9.70;;;1.45;;
29574;SDS011;16507;51.046;6.406;2022-07-29T03:07:31;2.42;;;1.40;;
29574;SDS011;16507;51.046;6.406;2022-07-29T03:09:58;2.80;;;1.10;;
29574;SDS011;16507;51.046;6.406;2022-07-29T03:12:24;5.28;;;1.50;;
29574;SDS011;16507;51.046;6.406;2022-07-29T03:14:52;3.40;;;1.10;;
29574;SDS011;16507;51.046;6.406;2022-07-29T03:17:18;8.32;;;1.35;;
29574;SDS011;16507;51.046;6.406;2022-07-29T03:19:45;4.13;;;1.30;;
29574;SDS011;16507;51.046;6.406;2022-07-29T03:22:11;3.60;;;1.30;;
29574;SDS011;16507;51.046;6.406;2022-07-29T03:24:37;11.65;;;1.85;;
29574;SDS011;16507;51.046;6.406;2022-07-29T03:27:03;4.68;;;1.20;;
29574;SDS011;16507;51.046;6.406;2022-07-29T03:29:30;2.45;;;1.10;;
29574;SDS011;16507;51.046;6.406;2022-07-29T03:31:56;3.10;;;1.27;;
29574;SDS011;16507;51.046;6.406;2022-07-29T03:34:22;0.95;;;0.77;;
29574;SDS011;16507;51.046;6.406;2022-07-29T03:36:48;3.60;;;1.13;;
29574;SDS011;16507;51.046;6.406;2022-07-29T03:39:18;2.47;;;1.70;;
29574;SDS011;16507;51.046;6.406;2022-07-29T03:41:47;4.80;;;1.45;;
29574;SDS011;16507;51.046;6.406;2022-07-29T03:44:15;1.85;;;1.40;;
29574;SDS011;16507;51.046;6.406;2022-07-29T03:46:43;3.67;;;1.60;;
29574;SDS011;16507;51.046;6.406;2022-07-29T03:49:09;2.45;;;1.45;;
29574;SDS011;16507;51.046;6.406;2022-07-29T03:51:37;4.28;;;1.42;;
29574;SDS011;16507;51.046;6.406;2022-07-29T03:54:04;3.15;;;1.67;;
29574;SDS011;16507;51.046;6.406;2022-07-29T03:56:31;4.55;;;1.65;;
29574;SDS011;16507;51.046;6.406;2022-07-29T03:58:59;7.82;;;2.28;;
29574;SDS011;16507;51.046;6.406;2022-07-29T04:01:27;2.40;;;1.60;;
29574;SDS011;16507;51.046;6.406;2022-07-29T04:03:54;3.38;;;1.65;;
29574;SDS011;16507;51.046;6.406;2022-07-29T04:06:20;4.20;;;2.20;;
29574;SDS011;16507;51.046;6.406;2022-07-29T04:08:46;3.63;;;1.80;;
29574;SDS011;16507;51.046;6.406;2022-07-29T04:11:11;4.50;;;1.92;;
29574;SDS011;16507;51.046;6.406;2022-07-29T04:13:37;6.80;;;2.20;;
29574;SDS011;16507;51.046;6.406;2022-07-29T04:16:03;3.55;;;1.92;;
29574;SDS011;16507;51.046;6.406;2022-07-29T04:18:29;4.80;;;1.88;;
29574;SDS011;16507;51.046;6.406;2022-07-29T04:20:55;2.95;;;2.10;;
29574;SDS011;16507;51.046;6.406;2022-07-29T04:23:20;3.60;;;1.70;;
29574;SDS011;16507;51.046;6.406;2022-07-29T04:25:46;2.33;;;1.85;;
29574;SDS011;16507;51.046;6.406;2022-07-29T04:28:12;3.00;;;1.92;;
29574;SDS011;16507;51.046;6.406;2022-07-29T04:30:38;7.05;;;2.50;;
29574;SDS011;16507;51.046;6.406;2022-07-29T04:33:04;3.33;;;2.10;;
29574;SDS011;16507;51.046;6.406;2022-07-29T04:35:35;3.63;;;2.00;;
29574;SDS011;16507;51.046;6.406;2022-07-29T04:38:02;4.05;;;2.40;;
29574;SDS011;16507;51.046;6.406;2022-07-29T04:40:29;3.42;;;2.38;;
29574;SDS011;16507;51.046;6.406;2022-07-29T04:42:55;5.30;;;2.42;;
29574;SDS011;16507;51.046;6.406;2022-07-29T04:45:20;6.38;;;2.83;;
29574;SDS011;16507;51.046;6.406;2022-07-29T04:47:46;4.20;;;2.00;;
29574;SDS011;16507;51.046;6.406;2022-07-29T04:50:12;4.53;;;2.70;;
29574;SDS011;16507;51.046;6.406;2022-07-29T04:52:37;5.85;;;2.45;;
29574;SDS011;16507;51.046;6.406;2022-07-29T04:55:04;8.27;;;2.97;;
29574;SDS011;16507;51.046;6.406;2022-07-29T04:57:30;4.22;;;2.53;;
29574;SDS011;16507;51.046;6.406;2022-07-29T04:59:56;3.72;;;2.28;;
29574;SDS011;16507;51.046;6.406;2022-07-29T05:02:21;4.57;;;2.42;;
29574;SDS011;16507;51.046;6.406;2022-07-29T05:04:47;3.28;;;1.95;;
29574;SDS011;16507;51.046;6.406;2022-07-29T05:07:13;5.82;;;2.55;;
29574;SDS011;16507;51.046;6.406;2022-07-29T05:09:39;9.27;;;2.70;;
29574;SDS011;16507;51.046;6.406;2022-07-29T05:12:05;4.90;;;2.42;;
29574;SDS011;16507;51.046;6.406;2022-07-29T05:14:32;3.28;;;2.40;;
29574;SDS011;16507;51.046;6.406;2022-07-29T05:16:57;5.78;;;2.30;;
29574;SDS011;16507;51.046;6.406;2022-07-29T05:19:23;6.43;;;1.95;;
29574;SDS011;16507;51.046;6.406;2022-07-29T05:21:49;3.25;;;2.17;;
29574;SDS011;16507;51.046;6.406;2022-07-29T05:24:15;6.65;;;2.47;;
29574;SDS011;16507;51.046;6.406;2022-07-29T05:26:41;6.15;;;2.35;;
29574;SDS011;16507;51.046;6.406;2022-07-29T05:29:06;3.85;;;2.03;;
29574;SDS011;16507;51.046;6.406;2022-07-29T05:31:32;3.25;;;2.03;;
29574;SDS011;16507;51.046;6.406;2022-07-29T05:33:58;6.47;;;2.25;;
29574;SDS011;16507;51.046;6.406;2022-07-29T05:36:24;5.57;;;2.55;;
29574;SDS011;16507;51.046;6.406;2022-07-29T05:38:50;5.60;;;2.63;;
29574;SDS011;16507;51.046;6.406;2022-07-29T05:41:17;5.38;;;3.05;;
29574;SDS011;16507;51.046;6.406;2022-07-29T05:43:43;5.15;;;2.63;;
29574;SDS011;16507;51.046;6.406;2022-07-29T05:46:08;4.88;;;2.42;;
29574;SDS011;16507;51.046;6.406;2022-07-29T05:48:34;7.55;;;2.20;;
29574;SDS011;16507;51.046;6.406;2022-07-29T05:51:00;6.80;;;2.63;;
29574;SDS011;16507;51.046;6.406;2022-07-29T05:53:26;7.07;;;2.30;;
29574;SDS011;16507;51.046;6.406;2022-07-29T05:55:52;2.53;;;2.03;;
29574;SDS011;16507;51.046;6.406;2022-07-29T05:58:18;10.27;;;2.50;;
29574;SDS011;16507;51.046;6.406;2022-07-29T06:00:43;9.77;;;2.10;;
29574;SDS011;16507;51.046;6.406;2022-07-29T06:03:10;8.90;;;2.90;;
29574;SDS011;16507;51.046;6.406;2022-07-29T06:05:35;10.80;;;2.60;;
29574;SDS011;16507;51.046;6.406;2022-07-29T06:08:02;4.72;;;2.30;;
29574;SDS011;16507;51.046;6.406;2022-07-29T06:10:30;15.77;;;3.08;;
29574;SDS011;16507;51.046;6.406;2022-07-29T06:12:56;8.43;;;2.80;;
29574;SDS011;16507;51.046;6.406;2022-07-29T06:15:22;3.83;;;2.40;;
29574;SDS011;16507;51.046;6.406;2022-07-29T06:17:47;9.93;;;2.50;;
29574;SDS011;16507;51.046;6.406;2022-07-29T06:20:13;6.97;;;2.50;;
29574;SDS011;16507;51.046;6.406;2022-07-29T06:22:39;7.28;;;2.90;;
29574;SDS011;16507;51.046;6.406;2022-07-29T06:25:05;8.70;;;2.20;;
29574;SDS011;16507;51.046;6.406;2022-07-29T06:27:31;4.50;;;2.10;;
29574;SDS011;16507;51.046;6.406;2022-07-29T06:29:56;6.15;;;2.88;;
29574;SDS011;16507;51.046;6.406;2022-07-29T06:32:22;5.40;;;2.58;;
29574;SDS011;16507;51.046;6.406;2022-07-29T06:34:48;8.18;;;2.70;;
29574;SDS011;16507;51.046;6.406;2022-07-29T06:37:13;3.90;;;2.40;;
29574;SDS011;16507;51.046;6.406;2022-07-29T06:39:39;4.55;;;2.70;;
29574;SDS011;16507;51.046;6.406;2022-07-29T06:42:05;4.45;;;2.65;;
29574;SDS011;16507;51.046;6.406;2022-07-29T06:44:31;8.32;;;2.67;;
29574;SDS011;16507;51.046;6.406;2022-07-29T06:47:01;5.72;;;2.60;;
29574;SDS011;16507;51.046;6.406;2022-07-29T06:49:27;4.60;;;2.85;;
29574;SDS011;16507;51.046;6.406;2022-07-29T06:51:53;10.57;;;2.80;;
29574;SDS011;16507;51.046;6.406;2022-07-29T06:54:19;6.85;;;2.78;;
29574;SDS011;16507;51.046;6.406;2022-07-29T06:56:46;9.68;;;3.17;;
29574;SDS011;16507;51.046;6.406;2022-07-29T06:59:12;5.20;;;2.83;;
29574;SDS011;16507;51.046;6.406;2022-07-29T07:01:38;10.18;;;3.08;;
29574;SDS011;16507;51.046;6.406;2022-07-29T07:04:05;8.48;;;3.00;;
29574;SDS011;16507;51.046;6.406;2022-07-29T07:06:33;5.05;;;2.92;;
29574;SDS011;16507;51.046;6.406;2022-07-29T07:09:00;7.68;;;3.08;;
29574;SDS011;16507;51.046;6.406;2022-07-29T07:11:26;8.25;;;2.58;;
29574;SDS011;16507;51.046;6.406;2022-07-29T07:13:52;9.82;;;2.92;;
29574;SDS011;16507;51.046;6.406;2022-07-29T07:16:18;3.03;;;2.45;;
29574;SDS011;16507;51.046;6.406;2022-07-29T07:18:43;7.55;;;2.90;;
29574;SDS011;16507;51.046;6.406;2022-07-29T07:21:10;7.75;;;3.30;;
29574;SDS011;16507;51.046;6.406;2022-07-29T07:23:36;8.60;;;3.30;;
29574;SDS011;16507;51.046;6.406;2022-07-29T07:26:02;6.13;;;3.28;;
29574;SDS011;16507;51.046;6.406;2022-07-29T07:28:28;3.97;;;2.63;;
29574;SDS011;16507;51.046;6.406;2022-07-29T07:30:54;4.63;;;2.85;;
29574;SDS011;16507;51.046;6.406;2022-07-29T07:33:19;5.78;;;2.67;;
29574;SDS011;16507;51.046;6.406;2022-07-29T07:35:46;6.03;;;3.08;;
29574;SDS011;16507;51.046;6.406;2022-07-29T07:38:11;4.68;;;3.03;;
29574;SDS011;16507;51.046;6.406;2022-07-29T07:40:37;16.35;;;3.33;;
29574;SDS011;16507;51.046;6.406;2022-07-29T07:43:03;8.05;;;2.55;;
29574;SDS011;16507;51.046;6.406;2022-07-29T07:45:29;6.00;;;2.75;;
29574;SDS011;16507;51.046;6.406;2022-07-29T07:47:54;10.73;;;3.00;;
29574;SDS011;16507;51.046;6.406;2022-07-29T07:50:20;7.20;;;3.33;;
29574;SDS011;16507;51.046;6.406;2022-07-29T07:52:50;4.43;;;2.65;;
29574;SDS011;16507;51.046;6.406;2022-07-29T07:55:17;11.45;;;3.30;;
29574;SDS011;16507;51.046;6.406;2022-07-29T07:57:43;9.48;;;3.15;;
29574;SDS011;16507;51.046;6.406;2022-07-29T08:00:09;9.20;;;2.97;;
29574;SDS011;16507;51.046;6.406;2022-07-29T08:02:35;11.18;;;3.42;;
29574;SDS011;16507;51.046;6.406;2022-07-29T08:05:00;13.45;;;3.25;;
29574;SDS011;16507;51.046;6.406;2022-07-29T08:07:26;15.00;;;3.35;;
29574;SDS011;16507;51.046;6.406;2022-07-29T08:09:51;7.82;;;2.78;;
29574;SDS011;16507;51.046;6.406;2022-07-29T08:12:17;6.45;;;3.00;;
29574;SDS011;16507;51.046;6.406;2022-07-29T08:14:43;8.45;;;2.90;;
29574;SDS011;16507;51.046;6.406;2022-07-29T08:17:08;5.45;;;2.95;;
29574;SDS011;16507;51.046;6.406;2022-07-29T08:19:34;6.43;;;2.75;;
29574;SDS011;16507;51.046;6.406;2022-07-29T08:21:59;4.15;;;2.88;;
29574;SDS011;16507;51.046;6.406;2022-07-29T08:24:25;7.35;;;2.88;;
29574;SDS011;16507;51.046;6.406;2022-07-29T08:27:12;4.53;;;2.90;;
29574;SDS011;16507;51.046;6.406;2022-07-29T08:29:39;9.70;;;2.45;;
29574;SDS011;16507;51.046;6.406;2022-07-29T08:32:05;4.50;;;2.45;;
29574;SDS011;16507;51.046;6.406;2022-07-29T08:34:31;5.88;;;2.45;;
29574;SDS011;16507;51.046;6.406;2022-07-29T08:36:57;5.18;;;2.05;;
29574;SDS011;16507;51.046;6.406;2022-07-29T08:39:23;11.73;;;2.50;;
29574;SDS011;16507;51.046;6.406;2022-07-29T08:41:50;6.22;;;2.38;;
29574;SDS011;16507;51.046;6.406;2022-07-29T08:44:16;3.65;;;2.78;;
29574;SDS011;16507;51.046;6.406;2022-07-29T08:46:43;4.35;;;2.55;;
29574;SDS011;16507;51.046;6.406;2022-07-29T08:49:10;6.25;;;2.95;;
29574;SDS011;16507;51.046;6.406;2022-07-29T08:51:36;6.60;;;2.70;;
29574;SDS011;16507;51.046;6.406;2022-07-29T08:54:05;5.80;;;2.20;;
29574;SDS011;16507;51.046;6.406;2022-07-29T08:56:31;4.32;;;2.25;;
29574;SDS011;16507;51.046;6.406;2022-07-29T08:58:58;5.75;;;1.88;;
29574;SDS011;16507;51.046;6.406;2022-07-29T09:01:25;5.10;;;2.53;;
29574;SDS011;16507;51.046;6.406;2022-07-29T09:03:55;7.05;;;2.25;;
29574;SDS011;16507;51.046;6.406;2022-07-29T09:06:21;3.00;;;2.05;;
29574;SDS011;16507;51.046;6.406;2022-07-29T09:08:50;3.00;;;2.38;;
29574;SDS011;16507;51.046;6.406;2022-07-29T09:11:16;5.13;;;2.20;;
29574;SDS011;16507;51.046;6.406;2022-07-29T09:13:42;6.15;;;2.30;;
29574;SDS011;16507;51.046;6.406;2022-07-29T09:16:07;4.55;;;2.20;;
29574;SDS011;16507;51.046;6.406;2022-07-29T09:21:00;4.07;;;2.33;;
29574;SDS011;16507;51.046;6.406;2022-07-29T09:24:07;6.55;;;2.10;;
29574;SDS011;16507;51.046;6.406;2022-07-29T09:26:35;6.32;;;2.20;;
29574;SDS011;16507;51.046;6.406;2022-07-29T09:29:12;4.00;;;2.10;;
29574;SDS011;16507;51.046;6.406;2022-07-29T09:31:41;3.88;;;2.15;;
29574;SDS011;16507;51.046;6.406;2022-07-29T09:34:08;8.00;;;2.28;;
29574;SDS011;16507;51.046;6.406;2022-07-29T09:36:38;2.50;;;2.17;;
29574;SDS011;16507;51.046;6.406;2022-07-29T09:39:05;2.05;;;1.70;;
29574;SDS011;16507;51.046;6.406;2022-07-29T09:41:43;7.65;;;1.92;;
29574;SDS011;16507;51.046;6.406;2022-07-29T09:44:19;2.00;;;1.80;;
29574;SDS011;16507;51.046;6.406;2022-07-29T09:46:59;6.40;;;1.98;;
29574;SDS011;16507;51.046;6.406;2022-07-29T09:49:32;8.57;;;2.45;;
29574;SDS011;16507;51.046;6.406;2022-07-29T09:52:06;3.47;;;1.42;;
29574;SDS011;16507;51.046;6.406;2022-07-29T09:54:34;4.82;;;1.90;;
29574;SDS011;16507;51.046;6.406;2022-07-29T09:57:07;3.45;;;2.00;;
29574;SDS011;16507;51.046;6.406;2022-07-29T09:59:59;4.35;;;1.83;;
29574;SDS011;16507;51.046;6.406;2022-07-29T10:02:34;4.85;;;1.95;;
29574;SDS011;16507;51.046;6.406;2022-07-29T10:05:03;2.83;;;1.88;;
29574;SDS011;16507;51.046;6.406;2022-07-29T10:10:29;6.32;;;1.63;;
29574;SDS011;16507;51.046;6.406;2022-07-29T10:12:57;2.20;;;1.40;;
29574;SDS011;16507;51.046;6.406;2022-07-29T10:15:29;5.30;;;1.80;;
29574;SDS011;16507;51.046;6.406;2022-07-29T10:17:57;5.75;;;1.45;;
29574;SDS011;16507;51.046;6.406;2022-07-29T10:20:24;4.95;;;1.35;;
29574;SDS011;16507;51.046;6.406;2022-07-29T10:22:52;5.25;;;1.63;;
29574;SDS011;16507;51.046;6.406;2022-07-29T10:25:18;2.97;;;1.75;;
29574;SDS011;16507;51.046;6.406;2022-07-29T10:27:45;2.97;;;1.30;;
29574;SDS011;16507;51.046;6.406;2022-07-29T10:30:12;5.00;;;2.03;;
29574;SDS011;16507;51.046;6.406;2022-07-29T10:35:15;6.38;;;1.75;;
29574;SDS011;16507;51.046;6.406;2022-07-29T10:43:55;7.05;;;1.90;;
29574;SDS011;16507;51.046;6.406;2022-07-29T10:46:28;6.28;;;1.73;;
29574;SDS011;16507;51.046;6.406;2022-07-29T11:05:17;5.93;;;1.88;;
29574;SDS011;16507;51.046;6.406;2022-07-29T11:10:38;7.13;;;2.47;;
29574;SDS011;16507;51.046;6.406;2022-07-29T11:13:04;9.60;;;2.28;;
29574;SDS011;16507;51.046;6.406;2022-07-29T11:15:51;7.63;;;2.58;;
29574;SDS011;16507;51.046;6.406;2022-07-29T11:18:22;4.03;;;2.20;;
29574;SDS011;16507;51.046;6.406;2022-07-29T11:20:49;10.48;;;3.15;;
29574;SDS011;16507;51.046;6.406;2022-07-29T11:25:45;3.58;;;2.47;;
29574;SDS011;16507;51.046;6.406;2022-07-29T11:28:29;6.72;;;2.60;;
29574;SDS011;16507;51.046;6.406;2022-07-29T11:30:55;3.50;;;2.53;;
29574;SDS011;16507;51.046;6.406;2022-07-29T11:33:28;4.50;;;2.38;;
29574;SDS011;16507;51.046;6.406;2022-07-29T11:38:37;7.30;;;2.70;;
29574;SDS011;16507;51.046;6.406;2022-07-29T11:41:23;3.08;;;2.38;;
29574;SDS011;16507;51.046;6.406;2022-07-29T11:43:54;4.55;;;3.03;;
29574;SDS011;16507;51.046;6.406;2022-07-29T11:49:22;8.10;;;2.83;;
29574;SDS011;16507;51.046;6.406;2022-07-29T11:51:53;4.82;;;3.05;;
29574;SDS011;16507;51.046;6.406;2022-07-29T11:54:29;6.07;;;2.55;;
29574;SDS011;16507;51.046;6.406;2022-07-29T11:56:58;4.18;;;2.28;;
29574;SDS011;16507;51.046;6.406;2022-07-29T11:59:24;10.43;;;3.08;;
29574;SDS011;16507;51.046;6.406;2022-07-29T12:04:19;7.25;;;3.10;;
29574;SDS011;16507;51.046;6.406;2022-07-29T12:06:51;5.53;;;2.65;;
29574;SDS011;16507;51.046;6.406;2022-07-29T12:09:18;4.50;;;2.55;;
29574;SDS011;16507;51.046;6.406;2022-07-29T12:11:45;4.10;;;2.50;;
29574;SDS011;16507;51.046;6.406;2022-07-29T12:14:27;5.55;;;2.70;;
29574;SDS011;16507;51.046;6.406;2022-07-29T12:16:54;5.55;;;2.22;;
29574;SDS011;16507;51.046;6.406;2022-07-29T12:19:20;3.90;;;2.55;;
29574;SDS011;16507;51.046;6.406;2022-07-29T12:21:46;4.70;;;2.20;;
29574;SDS011;16507;51.046;6.406;2022-07-29T12:24:13;7.10;;;2.20;;
29574;SDS011;16507;51.046;6.406;2022-07-29T12:26:48;3.13;;;2.17;;
29574;SDS011;16507;51.046;6.406;2022-07-29T12:29:16;6.45;;;2.20;;
29574;SDS011;16507;51.046;6.406;2022-07-29T12:31:42;2.90;;;2.58;;
29574;SDS011;16507;51.046;6.406;2022-07-29T12:34:09;8.70;;;3.05;;
29574;SDS011;16507;51.046;6.406;2022-07-29T12:36:36;2.58;;;2.38;;
29574;SDS011;16507;51.046;6.406;2022-07-29T12:39:02;11.73;;;2.63;;
29574;SDS011;16507;51.046;6.406;2022-07-29T12:41:29;5.30;;;2.45;;
29574;SDS011;16507;51.046;6.406;2022-07-29T12:43:55;6.43;;;2.83;;
29574;SDS011;16507;51.046;6.406;2022-07-29T12:46:20;3.13;;;2.40;;
29574;SDS011;16507;51.046;6.406;2022-07-29T12:48:50;3.97;;;2.25;;
29574;SDS011;16507;51.046;6.406;2022-07-29T12:51:27;2.53;;;2.33;;
29574;SDS011;16507;51.046;6.406;2022-07-29T12:54:01;5.88;;;2.65;;
29574;SDS011;16507;51.046;6.406;2022-07-29T12:56:31;3.95;;;2.65;;
29574;SDS011;16507;51.046;6.406;2022-07-29T12:58:58;4.25;;;2.70;;
29574;SDS011;16507;51.046;6.406;2022-07-29T13:01:23;3.97;;;2.67;;
29574;SDS011;16507;51.046;6.406;2022-07-29T13:14:02;4.40;;;1.88;;
29574;SDS011;16507;51.046;6.406;2022-07-29T13:16:28;5.03;;;2.03;;
29574;SDS011;16507;51.046;6.406;2022-07-29T13:19:04;4.80;;;1.95;;
29574;SDS011;16507;51.046;6.406;2022-07-29T13:21:29;3.13;;;1.90;;
29574;SDS011;16507;51.046;6.406;2022-07-29T13:23:55;7.10;;;2.53;;
29574;SDS011;16507;51.046;6.406;2022-07-29T13:26:20;3.38;;;1.70;;
29574;SDS011;16507;51.046;6.406;2022-07-29T13:28:46;2.30;;;1.92;;
29574;SDS011;16507;51.046;6.406;2022-07-29T13:31:12;5.57;;;1.88;;
29574;SDS011;16507;51.046;6.406;2022-07-29T13:33:37;2.72;;;1.60;;
29574;SDS011;16507;51.046;6.406;2022-07-29T13:36:03;2.65;;;1.92;;
29574;SDS011;16507;51.046;6.406;2022-07-29T13:38:28;3.28;;;1.63;;
29574;SDS011;16507;51.046;6.406;2022-07-29T13:40:54;5.18;;;1.73;;
29574;SDS011;16507;51.046;6.406;2022-07-29T13:43:20;4.03;;;1.90;;
29574;SDS011;16507;51.046;6.406;2022-07-29T13:45:45;1.45;;;1.27;;
29574;SDS011;16507;51.046;6.406;2022-07-29T13:48:11;2.55;;;1.52;;
29574;SDS011;16507;51.046;6.406;2022-07-29T13:50:36;3.30;;;1.90;;
29574;SDS011;16507;51.046;6.406;2022-07-29T13:53:02;2.30;;;1.75;;
29574;SDS011;16507;51.046;6.406;2022-07-29T13:55:28;2.65;;;1.27;;
29574;SDS011;16507;51.046;6.406;2022-07-29T13:57:54;1.55;;;1.05;;
29574;SDS011;16507;51.046;6.406;2022-07-29T14:00:20;2.22;;;1.10;;
29574;SDS011;16507;51.046;6.406;2022-07-29T14:02:46;1.40;;;1.10;;
29574;SDS011;16507;51.046;6.406;2022-07-29T14:05:11;2.35;;;1.23;;
29574;SDS011;16507;51.046;6.406;2022-07-29T14:07:37;2.08;;;1.17;;
29574;SDS011;16507;51.046;6.406;2022-07-29T14:10:06;1.10;;;1.00;;
29574;SDS011;16507;51.046;6.406;2022-07-29T14:12:32;4.55;;;1.20;;
29574;SDS011;16507;51.046;6.406;2022-07-29T14:14:58;2.15;;;1.17;;
29574;SDS011;16507;51.046;6.406;2022-07-29T14:17:23;1.33;;;1.00;;
29574;SDS011;16507;51.046;6.406;2022-07-29T14:19:49;2.72;;;1.00;;
29574;SDS011;16507;51.046;6.406;2022-07-29T14:22:15;4.65;;;0.88;;
29574;SDS011;16507;51.046;6.406;2022-07-29T14:24:40;2.10;;;1.10;;
29574;SDS011;16507;51.046;6.406;2022-07-29T14:27:06;4.22;;;1.10;;
29574;SDS011;16507;51.046;6.406;2022-07-29T14:29:33;2.13;;;0.90;;
29574;SDS011;16507;51.046;6.406;2022-07-29T14:31:58;1.38;;;0.85;;
29574;SDS011;16507;51.046;6.406;2022-07-29T14:34:24;1.70;;;0.80;;
29574;SDS011;16507;51.046;6.406;2022-07-29T14:36:50;1.67;;;0.77;;
29574;SDS011;16507;51.046;6.406;2022-07-29T14:39:16;1.05;;;0.90;;
29574;SDS011;16507;51.046;6.406;2022-07-29T14:41:42;2.75;;;1.00;;
29574;SDS011;16507;51.046;6.406;2022-07-29T14:44:08;2.15;;;0.80;;
29574;SDS011;16507;51.046;6.406;2022-07-29T14:46:34;1.67;;;1.00;;
29574;SDS011;16507;51.046;6.406;2022-07-29T14:48:59;0.90;;;0.80;;
29574;SDS011;16507;51.046;6.406;2022-07-29T14:51:25;3.40;;;1.23;;
29574;SDS011;16507;51.046;6.406;2022-07-29T14:53:51;2.05;;;1.73;;
29574;SDS011;16507;51.046;6.406;2022-07-29T14:56:16;4.38;;;1.67;;
29574;SDS011;16507;51.046;6.406;2022-07-29T14:58:42;2.58;;;1.10;;
29574;SDS011;16507;51.046;6.406;2022-07-29T15:01:08;3.22;;;1.05;;
29574;SDS011;16507;51.046;6.406;2022-07-29T15:03:34;6.88;;;0.90;;
29574;SDS011;16507;51.046;6.406;2022-07-29T15:05:59;2.10;;;1.00;;
29574;SDS011;16507;51.046;6.406;2022-07-29T15:08:25;1.55;;;0.98;;
29574;SDS011;16507;51.046;6.406;2022-07-29T15:10:53;1.33;;;0.75;;
29574;SDS011;16507;51.046;6.406;2022-07-29T15:13:18;2.05;;;1.00;;
29574;SDS011;16507;51.046;6.406;2022-07-29T15:15:44;1.00;;;0.85;;
29574;SDS011;16507;51.046;6.406;2022-07-29T15:18:10;2.80;;;0.90;;
29574;SDS011;16507;51.046;6.406;2022-07-29T15:20:36;1.48;;;1.10;;
29574;SDS011;16507;51.046;6.406;2022-07-29T15:23:02;11.77;;;1.40;;
29574;SDS011;16507;51.046;6.406;2022-07-29T15:25:28;3.40;;;1.10;;
29574;SDS011;16507;51.046;6.406;2022-07-29T15:27:54;2.08;;;1.20;;
29574;SDS011;16507;51.046;6.406;2022-07-29T15:30:20;4.13;;;1.23;;
29574;SDS011;16507;51.046;6.406;2022-07-29T15:32:45;2.00;;;1.25;;
29574;SDS011;16507;51.046;6.406;2022-07-29T15:35:11;5.78;;;1.13;;
29574;SDS011;16507;51.046;6.406;2022-07-29T15:37:37;2.45;;;0.98;;
29574;SDS011;16507;51.046;6.406;2022-07-29T15:40:04;4.18;;;1.05;;
29574;SDS011;16507;51.046;6.406;2022-07-29T15:42:30;1.60;;;1.02;;
29574;SDS011;16507;51.046;6.406;2022-07-29T15:44:56;5.13;;;1.20;;
29574;SDS011;16507;51.046;6.406;2022-07-29T15:47:22;1.50;;;1.33;;
29574;SDS011;16507;51.046;6.406;2022-07-29T15:49:48;2.15;;;1.20;;
29574;SDS011;16507;51.046;6.406;2022-07-29T15:52:14;2.35;;;1.20;;
29574;SDS011;16507;51.046;6.406;2022-07-29T15:54:44;1.10;;;1.10;;
29574;SDS011;16507;51.046;6.406;2022-07-29T15:57:10;3.65;;;1.45;;
29574;SDS011;16507;51.046;6.406;2022-07-29T15:59:35;3.17;;;1.25;;
29574;SDS011;16507;51.046;6.406;2022-07-29T16:02:01;3.58;;;1.30;;
29574;SDS011;16507;51.046;6.406;2022-07-29T16:04:28;2.95;;;1.27;;